Main page
METAR-TAF:

METAR-TAF

Airports :

Dalton Municipal Airport

Dalton, Georgia, United States

latitude: 34-43-18N, longitude: 084-52-09W, elevation: 708 ft

Current weather observation

The report was made 16 minutes ago, at 11:35 UTC
Calm wind
Temperature 34°F
Humidity 93%
Pressure 30.30 in. Hg
Visibility: 10 miles
Clear sky

METAR: KDNN 231135Z AUTO 00000KT 10SM CLR 01/00 A3030 RMK AO2

Time: 06:51 (11:51 UTC)


TAF: missing

Weather observations and forecasts of more than 4000 airports (METAR and TAF reports).

The available stations are represented by yellow and red dots on the map.

Hover mouse over dot to see the name of the station.

Then click to see weather observations and forecasts.

To change the map : click on the green buttons with a black cross to zoom in, on the green button with a dash to zoom out, or on the green arrows for adjacent maps.


METAR-TAF: